Time;durP1;ratioP1;P1;durP2;ratioP2;P2;SDS_P1;SDS_P2;PMS_P1;PMS_P2;Temp;Humidity;BMP_temperature;BMP_pressure;BME280_temperature;BME280_humidity;BME280_pressure;Samples;Min_cycle;Max_cycle;Signal;HPM_P1;HPM_P2
2021/10/13 00:00:00;;;;;;;0.00;0.00;;;7.60;97.80;;;;;;5065534;28;20510;-72
2021/10/13 00:02:25;;;;;;;2.03;1.20;;;7.60;97.70;;;;;;5052133;28;20037;-73
2021/10/13 00:04:50;;;;;;;0.00;0.00;;;7.60;97.90;;;;;;5056312;28;20572;-73
2021/10/13 00:07:16;;;;;;;0.35;0.35;;;7.60;98.00;;;;;;5059527;28;20029;-73
2021/10/13 00:09:41;;;;;;;0.08;0.03;;;7.50;98.10;;;;;;5063333;28;20060;-73
2021/10/13 00:12:07;;;;;;;0.20;0.20;;;7.50;98.10;;;;;;5053899;28;20396;-73
2021/10/13 00:14:32;;;;;;;0.05;0.05;;;7.50;98.20;;;;;;5056470;28;20108;-73
2021/10/13 00:17:05;;;;;;;0.13;0.13;;;7.50;98.30;;;;;;5059697;28;20029;-73
2021/10/13 00:19:31;;;;;;;1.67;0.70;;;7.50;98.20;;;;;;5067330;28;20491;-72
2021/10/13 00:21:57;;;;;;;2.63;0.85;;;7.50;98.30;;;;;;5063256;28;20044;-73
2021/10/13 00:24:22;;;;;;;0.00;0.00;;;7.50;98.60;;;;;;5062149;28;20641;-72
2021/10/13 00:26:48;;;;;;;0.00;0.00;;;7.40;98.60;;;;;;5066191;28;20032;-72
2021/10/13 00:29:13;;;;;;;0.22;0.22;;;7.40;98.60;;;;;;5050247;28;20025;-73
2021/10/13 00:31:39;;;;;;;0.00;0.00;;;7.40;98.70;;;;;;5061533;28;20449;-72
2021/10/13 00:34:04;;;;;;;0.65;0.65;;;7.40;99.00;;;;;;5065220;28;20059;-72
2021/10/13 00:36:30;;;;;;;1.20;1.10;;;7.40;99.00;;;;;;5061482;28;20294;-72
2021/10/13 00:38:55;;;;;;;0.68;0.68;;;7.40;99.00;;;;;;5063272;28;20535;-72
2021/10/13 00:41:21;;;;;;;0.10;0.10;;;7.40;99.20;;;;;;5064727;28;20059;-72
2021/10/13 00:43:46;;;;;;;0.10;0.10;;;7.30;99.50;;;;;;5064981;28;20054;-72
2021/10/13 00:46:12;;;;;;;0.17;0.17;;;7.30;99.20;;;;;;5063271;28;20511;-72
2021/10/13 00:48:37;;;;;;;0.00;0.00;;;7.30;99.70;;;;;;5059999;28;20102;-72
2021/10/13 00:51:03;;;;;;;0.00;0.00;;;7.30;99.50;;;;;;5063411;28;20031;-73
2021/10/13 00:53:29;;;;;;;0.10;0.10;;;7.30;99.70;;;;;;5060185;28;20113;-73
2021/10/13 00:55:56;;;;;;;0.00;0.00;;;7.30;99.50;;;;;;5059249;28;20357;-72
2021/10/13 00:58:22;;;;;;;0.05;0.05;;;7.20;99.60;;;;;;5065499;28;20540;-71
2021/10/13 01:00:55;;;;;;;0.00;0.00;;;7.30;99.80;;;;;;5055923;28;20037;-72
2021/10/13 01:03:48;;;;;;;0.00;0.00;;;7.20;99.90;;;;;;5064225;28;20037;-72
2021/10/13 01:06:28;;;;;;;0.10;0.10;;;7.20;99.90;;;;;;5063530;28;20044;-72
2021/10/13 01:09:06;;;;;;;0.05;0.05;;;7.20;99.90;;;;;;5063401;28;20524;-72
2021/10/13 01:11:55;;;;;;;1.35;0.90;;;7.20;99.90;;;;;;5055826;28;20519;-72
2021/10/13 01:14:34;;;;;;;0.00;0.00;;;7.10;99.90;;;;;;5063246;28;20050;-72
2021/10/13 01:17:25;;;;;;;0.00;0.00;;;7.10;99.90;;;;;;5057726;28;20028;-72
2021/10/13 01:20:01;;;;;;;0.10;0.10;;;7.20;99.90;;;;;;5061698;28;20040;-72
2021/10/13 01:23:05;;;;;;;0.15;0.15;;;7.10;99.90;;;;;;5063613;28;20207;-72
2021/10/13 01:25:59;;;;;;;5.28;1.75;;;7.20;99.90;;;;;;5057487;28;20112;-73
2021/10/13 01:28:28;;;;;;;0.32;0.32;;;7.10;99.90;;;;;;5053238;28;20479;-72
2021/10/13 01:31:04;;;;;;;0.05;0.05;;;7.10;99.90;;;;;;5065130;28;20070;-72
2021/10/13 01:33:42;;;;;;;0.38;0.38;;;7.10;99.90;;;;;;5056350;28;20059;-72
2021/10/13 01:36:11;;;;;;;0.30;0.20;;;7.10;99.90;;;;;;5058589;28;20099;-72
2021/10/13 01:38:42;;;;;;;0.00;0.00;;;7.00;99.90;;;;;;5053926;28;20025;-72
2021/10/13 01:41:08;;;;;;;0.00;0.00;;;7.10;99.90;;;;;;5065496;28;20112;-71
2021/10/13 01:43:38;;;;;;;0.10;0.10;;;7.10;99.90;;;;;;5062762;28;20037;-72
2021/10/13 01:46:05;;;;;;;0.82;0.80;;;7.00;99.90;;;;;;5057137;28;21227;-73
2021/10/13 01:48:32;;;;;;;0.63;0.57;;;7.00;99.90;;;;;;5062871;28;20119;-72
2021/10/13 01:50:58;;;;;;;0.10;0.10;;;7.00;99.90;;;;;;5055244;28;20054;-72
2021/10/13 01:53:25;;;;;;;0.05;0.05;;;7.00;99.90;;;;;;5057366;28;20021;-73
2021/10/13 01:55:51;;;;;;;0.00;0.00;;;7.00;99.90;;;;;;5059729;28;20025;-72
2021/10/13 01:58:21;;;;;;;0.08;0.08;;;7.00;99.90;;;;;;5067062;28;20368;-72
2021/10/13 02:00:50;;;;;;;0.20;0.20;;;7.00;99.90;;;;;;5064207;28;20041;-72
2021/10/13 02:03:19;;;;;;;0.00;0.00;;;6.90;99.90;;;;;;5068891;28;20179;-71
2021/10/13 02:05:45;;;;;;;0.00;0.00;;;6.90;99.90;;;;;;5054459;28;20039;-72
2021/10/13 02:08:13;;;;;;;0.13;0.13;;;6.90;99.90;;;;;;5062383;28;20037;-72
2021/10/13 02:10:40;;;;;;;0.00;0.00;;;6.90;99.90;;;;;;5068141;28;20490;-73
2021/10/13 02:13:07;;;;;;;0.10;0.10;;;6.90;99.90;;;;;;5055403;28;20111;-72
2021/10/13 02:15:33;;;;;;;0.15;0.15;;;6.90;99.90;;;;;;5065019;28;20078;-72
2021/10/13 02:18:00;;;;;;;0.28;0.28;;;6.80;99.90;;;;;;5065029;28;20491;-71
2021/10/13 02:20:27;;;;;;;0.38;0.38;;;6.90;99.90;;;;;;5064475;28;20025;-72
2021/10/13 02:22:57;;;;;;;0.10;0.10;;;6.80;99.90;;;;;;5061292;28;20492;-72
2021/10/13 02:25:23;;;;;;;0.35;0.35;;;6.80;99.90;;;;;;5061750;28;20638;-69
2021/10/13 02:27:59;;;;;;;0.00;0.00;;;6.90;99.90;;;;;;5062375;28;20040;-69
2021/10/13 02:30:24;;;;;;;0.10;0.10;;;6.80;99.90;;;;;;5068097;28;20299;-69
2021/10/13 02:32:50;;;;;;;0.40;0.40;;;6.80;99.90;;;;;;5070312;28;20424;-69
2021/10/13 02:35:16;;;;;;;0.00;0.00;;;6.80;99.90;;;;;;5065022;28;20443;-69
2021/10/13 02:37:42;;;;;;;0.17;0.17;;;6.80;99.90;;;;;;5070065;28;20064;-69
2021/10/13 02:40:08;;;;;;;0.40;0.40;;;6.80;99.90;;;;;;5059970;28;20032;-69
2021/10/13 02:42:35;;;;;;;0.00;0.00;;;6.80;99.90;;;;;;5070996;28;20079;-70
2021/10/13 02:45:01;;;;;;;0.20;0.20;;;6.70;99.90;;;;;;5071119;28;20028;-69
2021/10/13 02:47:35;;;;;;;2.08;0.75;;;6.70;99.90;;;;;;5068278;28;20035;-69
2021/10/13 02:50:27;;;;;;;0.45;0.40;;;6.70;99.90;;;;;;5058072;28;20090;-70
2021/10/13 02:53:18;;;;;;;0.10;0.10;;;6.70;99.90;;;;;;5063643;28;20383;-69
2021/10/13 02:55:47;;;;;;;;;;;6.70;99.90;;;;;;5068870;28;20028;-69
2021/10/13 02:58:22;;;;;;;0.10;0.10;;;6.70;99.90;;;;;;5057138;28;19935;-69
2021/10/13 03:00:50;;;;;;;0.00;0.00;;;6.70;99.90;;;;;;5057408;28;20115;-70
2021/10/13 03:03:36;;;;;;;0.00;0.00;;;6.70;99.90;;;;;;5061164;28;20029;-69
2021/10/13 03:06:04;;;;;;;0.95;0.63;;;6.70;99.90;;;;;;5067948;28;20037;-68
2021/10/13 03:08:34;;;;;;;0.08;0.08;;;6.60;99.90;;;;;;5054889;28;20078;-70
2021/10/13 03:11:01;;;;;;;0.00;0.00;;;6.70;99.90;;;;;;5064698;28;20031;-69
2021/10/13 03:13:32;;;;;;;0.22;0.22;;;6.60;99.90;;;;;;5064513;28;20028;-69
2021/10/13 03:16:00;;;;;;;0.10;0.10;;;6.60;99.90;;;;;;5060350;28;20028;-69
2021/10/13 03:18:27;;;;;;;0.00;0.00;;;6.60;99.90;;;;;;5069667;28;20036;-69
2021/10/13 03:20:53;;;;;;;0.00;0.00;;;6.60;99.90;;;;;;5061119;28;20040;-69
2021/10/13 03:23:20;;;;;;;0.00;0.00;;;6.50;99.90;;;;;;5067765;28;20044;-69
2021/10/13 03:25:48;;;;;;;0.00;0.00;;;6.50;99.90;;;;;;5062211;28;20086;-70
2021/10/13 03:28:14;;;;;;;0.00;0.00;;;6.50;99.90;;;;;;5064871;28;20512;-70
2021/10/13 03:30:43;;;;;;;5.10;0.57;;;6.50;99.90;;;;;;5068955;28;20166;-70
2021/10/13 03:33:09;;;;;;;0.05;0.05;;;6.50;99.90;;;;;;5064801;28;20139;-70
2021/10/13 03:35:35;;;;;;;0.10;0.10;;;6.50;99.90;;;;;;5066469;28;20104;-69
2021/10/13 03:38:02;;;;;;;0.00;0.00;;;6.50;99.90;;;;;;5056243;28;20025;-69
2021/10/13 03:40:30;;;;;;;0.15;0.10;;;6.50;99.90;;;;;;5062223;28;20017;-69
2021/10/13 03:42:55;;;;;;;0.10;0.10;;;6.50;99.90;;;;;;5064007;28;20053;-68
2021/10/13 03:45:22;;;;;;;0.00;0.00;;;6.50;99.90;;;;;;5066556;28;20501;-70
2021/10/13 03:47:49;;;;;;;0.00;0.00;;;6.50;99.90;;;;;;5061032;28;20074;-69
2021/10/13 03:50:17;;;;;;;0.10;0.10;;;6.50;99.90;;;;;;5063392;28;20236;-69
2021/10/13 03:52:43;;;;;;;0.00;0.00;;;6.50;99.90;;;;;;5059919;28;20047;-69
2021/10/13 03:55:13;;;;;;;0.00;0.00;;;6.50;99.90;;;;;;5062231;28;20487;-68
2021/10/13 03:57:38;;;;;;;0.10;0.10;;;6.50;99.90;;;;;;5062179;28;20473;-69
2021/10/13 04:00:06;;;;;;;2.10;1.17;;;6.50;99.90;;;;;;5056677;28;20112;-69
2021/10/13 04:02:35;;;;;;;0.00;0.00;;;6.50;99.90;;;;;;5065425;28;20447;-69
2021/10/13 04:05:00;;;;;;;0.00;0.00;;;6.50;99.90;;;;;;5059267;28;20112;-70
2021/10/13 04:07:27;;;;;;;0.10;0.10;;;6.50;99.90;;;;;;5061821;28;20108;-69
2021/10/13 04:09:53;;;;;;;0.40;0.38;;;6.50;99.90;;;;;;5069075;28;20220;-69
2021/10/13 04:12:18;;;;;;;0.10;0.10;;;6.60;99.90;;;;;;5062274;28;20036;-69
2021/10/13 04:14:43;;;;;;;0.10;0.10;;;6.60;99.90;;;;;;5061548;28;20021;-70
2021/10/13 04:17:09;;;;;;;1.08;0.20;;;6.70;99.90;;;;;;5049463;28;20208;-69
2021/10/13 04:19:34;;;;;;;0.20;0.20;;;6.60;99.90;;;;;;5056223;28;20079;-70
2021/10/13 04:22:00;;;;;;;0.00;0.00;;;6.70;99.90;;;;;;5064403;28;20086;-69
2021/10/13 04:24:25;;;;;;;0.00;0.00;;;6.70;99.90;;;;;;5063088;28;20033;-69
2021/10/13 04:26:51;;;;;;;0.70;0.35;;;6.70;99.90;;;;;;5059959;28;20032;-69
2021/10/13 04:29:17;;;;;;;0.00;0.00;;;6.70;99.90;;;;;;5063753;28;20114;-70
2021/10/13 04:31:42;;;;;;;0.00;0.00;;;6.80;99.90;;;;;;5059155;28;20016;-69
2021/10/13 04:34:08;;;;;;;0.00;0.00;;;6.80;99.90;;;;;;5061936;28;20107;-70
2021/10/13 04:36:33;;;;;;;0.22;0.22;;;6.80;99.90;;;;;;5062249;28;20116;-69
2021/10/13 04:38:58;;;;;;;0.35;0.35;;;6.80;99.90;;;;;;5055423;28;20033;-68
2021/10/13 04:41:24;;;;;;;0.00;0.00;;;6.80;99.90;;;;;;5057917;28;20544;-69
2021/10/13 04:43:49;;;;;;;0.10;0.10;;;6.80;99.90;;;;;;5062062;28;20041;-69
2021/10/13 04:46:15;;;;;;;0.10;0.10;;;6.80;99.90;;;;;;5056589;28;20024;-69
2021/10/13 04:48:40;;;;;;;2.83;0.45;;;6.80;99.90;;;;;;5066212;28;20752;-69
2021/10/13 04:51:06;;;;;;;0.47;0.30;;;6.80;99.90;;;;;;5064688;28;20043;-69
2021/10/13 04:53:31;;;;;;;0.10;0.10;;;6.80;99.90;;;;;;5061755;28;20476;-70
2021/10/13 04:55:57;;;;;;;0.90;0.40;;;6.80;99.90;;;;;;5050307;28;20112;-69
2021/10/13 04:58:22;;;;;;;0.10;0.10;;;6.70;99.90;;;;;;5066345;28;20020;-69
2021/10/13 05:00:48;;;;;;;0.25;0.25;;;6.70;99.90;;;;;;5062816;28;20029;-69
2021/10/13 05:03:13;;;;;;;0.10;0.10;;;6.70;99.90;;;;;;5063452;28;20036;-69
2021/10/13 05:05:40;;;;;;;0.38;0.38;;;6.60;99.90;;;;;;5052257;28;20029;-69
2021/10/13 05:08:06;;;;;;;2.30;0.65;;;6.60;99.90;;;;;;5057610;28;20033;-69
2021/10/13 05:10:32;;;;;;;0.10;0.10;;;6.50;99.90;;;;;;5060581;28;20021;-69
2021/10/13 05:12:57;;;;;;;0.15;0.15;;;6.60;99.90;;;;;;5059003;28;20426;-70
2021/10/13 05:15:23;;;;;;;3.03;0.55;;;6.60;99.90;;;;;;5048732;28;20025;-69
2021/10/13 05:17:48;;;;;;;0.00;0.00;;;6.60;99.90;;;;;;5057398;28;20048;-69
2021/10/13 05:20:14;;;;;;;0.22;0.22;;;6.50;99.90;;;;;;5055902;28;20369;-68
2021/10/13 05:22:39;;;;;;;0.40;0.40;;;6.50;99.90;;;;;;5057205;28;20058;-69
2021/10/13 05:25:06;;;;;;;0.93;0.70;;;6.50;99.90;;;;;;5071286;28;20100;-69
2021/10/13 05:27:31;;;;;;;0.08;0.08;;;6.50;99.90;;;;;;5052611;28;20043;-69
2021/10/13 05:29:57;;;;;;;0.10;0.10;;;6.50;99.90;;;;;;5060099;28;20391;-68
2021/10/13 05:32:22;;;;;;;0.20;0.20;;;6.50;99.90;;;;;;5056136;28;20071;-68
2021/10/13 05:34:48;;;;;;;0.00;0.00;;;6.50;99.90;;;;;;5055193;28;20028;-69
2021/10/13 05:37:13;;;;;;;0.10;0.10;;;6.60;99.90;;;;;;5066693;28;20161;-68
2021/10/13 05:39:39;;;;;;;0.03;0.03;;;6.60;99.90;;;;;;5057652;28;20035;-68
2021/10/13 05:42:04;;;;;;;0.57;0.57;;;6.60;99.90;;;;;;5057636;28;20043;-68
2021/10/13 05:44:30;;;;;;;0.32;0.25;;;6.70;99.90;;;;;;5056616;28;20029;-68
2021/10/13 05:46:55;;;;;;;0.10;0.10;;;6.70;99.90;;;;;;5058130;28;20029;-69
2021/10/13 05:49:21;;;;;;;0.32;0.32;;;6.80;99.90;;;;;;5055251;28;20025;-68
2021/10/13 05:51:46;;;;;;;0.45;0.45;;;6.80;99.90;;;;;;5063405;28;20056;-69
2021/10/13 05:54:12;;;;;;;0.05;0.05;;;6.80;99.90;;;;;;5053688;28;20021;-69
2021/10/13 05:56:38;;;;;;;0.30;0.30;;;6.90;99.90;;;;;;5057652;28;20032;-68
2021/10/13 05:59:03;;;;;;;0.00;0.00;;;6.90;99.90;;;;;;5065906;28;20470;-71
2021/10/13 06:01:29;;;;;;;0.03;0.03;;;6.90;99.90;;;;;;5060326;28;20467;-70
2021/10/13 06:03:55;;;;;;;0.20;0.20;;;6.90;99.90;;;;;;5058091;28;20028;-69
2021/10/13 06:06:21;;;;;;;0.90;0.52;;;7.00;99.90;;;;;;5059084;28;20434;-68
2021/10/13 06:08:46;;;;;;;0.43;0.43;;;7.00;99.90;;;;;;5052034;28;20033;-69
2021/10/13 06:11:12;;;;;;;0.10;0.10;;;7.10;99.90;;;;;;5065708;28;20025;-69
2021/10/13 06:13:38;;;;;;;0.30;0.30;;;7.10;99.90;;;;;;5060145;28;20021;-69
2021/10/13 06:16:07;;;;;;;0.73;0.43;;;7.10;99.90;;;;;;5054418;28;20047;-68
2021/10/13 06:18:33;;;;;;;0.30;0.30;;;7.10;99.90;;;;;;5063460;28;20033;-70
2021/10/13 06:20:59;;;;;;;0.40;0.32;;;7.10;99.90;;;;;;5055217;28;20127;-69
2021/10/13 06:23:25;;;;;;;0.10;0.10;;;7.10;99.90;;;;;;5058029;28;20052;-69
2021/10/13 06:25:50;;;;;;;0.20;0.20;;;7.20;99.90;;;;;;5055178;28;20471;-68
2021/10/13 06:28:16;;;;;;;0.28;0.28;;;7.20;99.90;;;;;;5060724;28;20099;-68
2021/10/13 06:30:42;;;;;;;0.20;0.20;;;7.30;99.90;;;;;;5065830;28;20383;-70
2021/10/13 06:33:08;;;;;;;0.50;0.50;;;7.30;99.90;;;;;;5057955;28;20223;-69
2021/10/13 06:35:33;;;;;;;0.03;0.03;;;7.30;99.90;;;;;;5059945;28;20070;-69
2021/10/13 06:37:59;;;;;;;0.45;0.45;;;7.40;99.90;;;;;;5069804;28;20020;-69
2021/10/13 06:40:25;;;;;;;0.65;0.50;;;7.40;99.90;;;;;;5063572;28;20055;-69
2021/10/13 06:42:50;;;;;;;0.05;0.05;;;7.40;99.90;;;;;;5063420;28;20051;-69
2021/10/13 06:45:16;;;;;;;0.13;0.13;;;7.40;99.90;;;;;;5058362;28;20025;-70
2021/10/13 06:47:42;;;;;;;5.38;2.15;;;7.50;99.90;;;;;;5064460;28;20024;-69
2021/10/13 06:50:09;;;;;;;0.52;0.52;;;7.50;99.90;;;;;;5059853;28;20111;-69
2021/10/13 06:52:34;;;;;;;0.22;0.22;;;7.50;99.90;;;;;;5058153;28;20021;-70
2021/10/13 06:55:00;;;;;;;0.10;0.10;;;7.50;99.90;;;;;;5063278;28;20035;-69
2021/10/13 06:57:26;;;;;;;0.55;0.40;;;7.60;99.90;;;;;;5066572;28;20025;-68
2021/10/13 06:59:51;;;;;;;0.93;0.90;;;7.60;99.90;;;;;;5057563;28;20053;-69
2021/10/13 07:02:17;;;;;;;0.30;0.30;;;7.60;99.90;;;;;;5064174;28;20417;-68
2021/10/13 07:04:42;;;;;;;0.50;0.50;;;7.70;99.90;;;;;;5062308;28;20083;-68
2021/10/13 07:07:08;;;;;;;1.25;0.95;;;7.70;99.90;;;;;;5061974;28;20024;-68
2021/10/13 07:09:33;;;;;;;0.43;0.43;;;7.80;99.90;;;;;;5061840;28;20033;-69
2021/10/13 07:11:59;;;;;;;0.20;0.20;;;7.80;99.90;;;;;;5061101;28;20052;-69
2021/10/13 07:14:25;;;;;;;0.80;0.75;;;7.90;99.90;;;;;;5052414;28;20500;-68
2021/10/13 07:16:50;;;;;;;0.80;0.55;;;7.90;99.90;;;;;;5051431;28;20033;-69
2021/10/13 07:19:16;;;;;;;2.08;1.15;;;8.00;99.90;;;;;;5059401;28;20475;-69
2021/10/13 07:21:41;;;;;;;0.25;0.25;;;8.00;99.90;;;;;;5067786;28;20491;-69
2021/10/13 07:24:07;;;;;;;1.08;1.02;;;8.00;99.90;;;;;;5064917;28;20447;-70
2021/10/13 07:26:34;;;;;;;0.10;0.10;;;8.10;99.90;;;;;;5064130;28;20539;-69
2021/10/13 07:29:00;;;;;;;0.10;0.10;;;8.20;99.90;;;;;;5063287;28;20036;-69
2021/10/13 07:31:27;;;;;;;0.30;0.30;;;8.20;99.90;;;;;;5070526;28;20397;-69
2021/10/13 07:33:53;;;;;;;0.25;0.25;;;8.30;99.90;;;;;;5059869;28;20104;-69
2021/10/13 07:36:19;;;;;;;0.55;0.55;;;8.30;99.90;;;;;;5067864;28;20115;-68
2021/10/13 07:38:46;;;;;;;5.78;1.90;;;8.30;99.90;;;;;;5059497;28;20028;-69
2021/10/13 07:41:13;;;;;;;1.48;0.70;;;8.30;99.90;;;;;;5066792;28;20100;-69
2021/10/13 07:43:39;;;;;;;0.20;0.20;;;8.30;99.90;;;;;;5066468;28;20055;-69
2021/10/13 07:46:04;;;;;;;2.63;0.50;;;8.40;99.90;;;;;;5067389;28;20040;-68
2021/10/13 07:48:30;;;;;;;0.98;0.95;;;8.40;99.90;;;;;;5059428;28;20122;-69
2021/10/13 07:50:56;;;;;;;2.30;1.17;;;8.40;99.90;;;;;;5062276;28;20318;-69
2021/10/13 07:53:22;;;;;;;0.00;0.00;;;8.40;99.90;;;;;;5060293;28;20101;-69
2021/10/13 07:55:48;;;;;;;1.65;1.05;;;8.40;99.90;;;;;;5068193;28;20036;-69
2021/10/13 07:58:13;;;;;;;1.85;0.75;;;8.40;99.90;;;;;;5057582;28;20020;-69
2021/10/13 08:00:39;;;;;;;0.20;0.20;;;8.40;99.90;;;;;;5068613;28;20067;-69
2021/10/13 08:03:04;;;;;;;0.63;0.63;;;8.40;99.90;;;;;;5064463;28;20090;-69
2021/10/13 08:05:30;;;;;;;0.40;0.40;;;8.60;99.90;;;;;;5062250;28;20422;-70
2021/10/13 08:07:55;;;;;;;1.60;0.88;;;8.60;99.90;;;;;;5068353;28;20020;-69
2021/10/13 08:10:22;;;;;;;0.20;0.20;;;8.70;99.90;;;;;;5068402;28;20406;-69
2021/10/13 08:12:48;;;;;;;0.90;0.90;;;8.70;99.90;;;;;;5051630;28;20074;-69
2021/10/13 08:15:16;;;;;;;0.52;0.52;;;8.60;99.90;;;;;;5057300;28;20029;-69
2021/10/13 08:17:41;;;;;;;1.13;0.65;;;8.70;99.90;;;;;;5051412;28;20032;-69
2021/10/13 08:20:10;;;;;;;0.22;0.22;;;8.70;99.90;;;;;;5061882;28;20028;-69
2021/10/13 08:22:36;;;;;;;0.88;0.88;;;8.80;99.90;;;;;;5055257;28;20186;-69
2021/10/13 08:25:06;;;;;;;5.18;1.27;;;8.90;99.90;;;;;;5058206;28;20035;-69
2021/10/13 08:27:32;;;;;;;0.57;0.57;;;9.10;99.90;;;;;;5062584;28;20085;-71
2021/10/13 08:29:58;;;;;;;0.10;0.10;;;9.10;99.90;;;;;;5063611;28;20115;-69
2021/10/13 08:32:23;;;;;;;0.00;0.00;;;9.20;99.90;;;;;;5058695;28;20027;-68
2021/10/13 08:34:49;;;;;;;0.32;0.32;;;9.30;99.90;;;;;;5055745;28;20036;-72
2021/10/13 08:37:15;;;;;;;0.90;0.77;;;9.30;99.90;;;;;;5065311;28;20036;-72
2021/10/13 08:39:40;;;;;;;0.38;0.38;;;9.30;99.90;;;;;;5070549;28;20250;-72
2021/10/13 08:42:06;;;;;;;0.93;0.85;;;9.40;99.90;;;;;;5068690;28;20033;-73
2021/10/13 08:44:32;;;;;;;0.63;0.63;;;9.50;99.90;;;;;;5061484;28;20053;-72
2021/10/13 08:46:58;;;;;;;0.00;0.00;;;9.50;99.90;;;;;;5055604;28;20036;-72
2021/10/13 08:49:24;;;;;;;0.00;0.00;;;9.50;99.90;;;;;;5060269;28;20025;-72
2021/10/13 08:51:49;;;;;;;0.22;0.22;;;9.50;99.90;;;;;;5065150;28;20104;-70
2021/10/13 08:54:18;;;;;;;1.80;0.55;;;9.50;99.90;;;;;;5057894;28;20025;-71
2021/10/13 08:56:44;;;;;;;0.63;0.63;;;9.50;99.90;;;;;;5057019;28;20021;-70
2021/10/13 08:59:29;;;;;;;0.10;0.10;;;9.50;99.90;;;;;;5059005;28;20103;-70
2021/10/13 09:01:55;;;;;;;0.08;0.08;;;9.50;99.90;;;;;;5066235;28;20063;-70
2021/10/13 09:04:20;;;;;;;0.32;0.32;;;9.70;99.90;;;;;;5063476;28;20068;-70
2021/10/13 09:06:46;;;;;;;0.50;0.50;;;9.80;99.90;;;;;;5066708;28;20082;-69
2021/10/13 09:09:12;;;;;;;0.00;0.00;;;9.90;99.90;;;;;;5058505;28;20115;-69
2021/10/13 09:11:42;;;;;;;0.20;0.20;;;10.00;99.90;;;;;;5067067;28;20020;-70
2021/10/13 09:14:19;;;;;;;0.00;0.00;;;10.10;99.90;;;;;;5064933;28;20028;-70
2021/10/13 09:17:03;;;;;;;0.17;0.17;;;10.20;99.90;;;;;;5052134;28;20102;-70
2021/10/13 09:19:30;;;;;;;0.00;0.00;;;10.30;99.90;;;;;;5062120;28;20021;-70
2021/10/13 09:22:03;;;;;;;0.00;0.00;;;10.30;99.90;;;;;;5064602;28;20052;-69
2021/10/13 09:24:30;;;;;;;0.00;0.00;;;10.40;99.90;;;;;;5066344;28;20150;-70
2021/10/13 09:26:58;;;;;;;0.63;0.43;;;10.50;99.90;;;;;;5061523;28;20215;-70
2021/10/13 09:29:24;;;;;;;0.65;0.38;;;10.60;99.90;;;;;;5051109;28;20435;-69
2021/10/13 09:31:58;;;;;;;0.10;0.10;;;10.70;99.90;;;;;;5067624;28;20064;-70
2021/10/13 09:34:24;;;;;;;0.00;0.00;;;10.80;99.90;;;;;;5058003;28;20035;-69
2021/10/13 09:37:01;;;;;;;0.28;0.28;;;10.90;99.10;;;;;;5064917;28;20515;-70
2021/10/13 09:39:29;;;;;;;0.20;0.20;;;11.10;99.40;;;;;;5061384;28;20541;-69
2021/10/13 09:41:55;;;;;;;0.30;0.30;;;11.20;98.60;;;;;;5066286;28;20029;-70
2021/10/13 09:44:21;;;;;;;0.70;0.20;;;11.20;97.40;;;;;;5068464;28;20033;-71
2021/10/13 09:46:50;;;;;;;0.40;0.40;;;11.30;97.30;;;;;;5057232;28;20025;-70
2021/10/13 09:49:29;;;;;;;0.52;0.52;;;11.30;97.30;;;;;;5066095;28;20498;-70
2021/10/13 09:52:04;;;;;;;0.35;0.35;;;11.40;96.70;;;;;;5055101;28;20036;-69
2021/10/13 09:54:29;;;;;;;0.00;0.00;;;11.50;96.90;;;;;;5060525;28;20040;-70
2021/10/13 09:56:55;;;;;;;0.30;0.20;;;11.60;97.20;;;;;;5065080;28;20028;-70
2021/10/13 09:59:22;;;;;;;0.03;0.03;;;11.70;96.80;;;;;;5065780;28;20033;-69
2021/10/13 10:01:54;;;;;;;0.00;0.00;;;11.80;96.20;;;;;;5065497;28;20029;-70
2021/10/13 10:04:25;;;;;;;0.10;0.10;;;11.90;96.10;;;;;;5064375;28;20569;-70
2021/10/13 10:06:56;;;;;;;0.10;0.10;;;11.90;95.70;;;;;;5052682;28;20033;-70
2021/10/13 10:09:24;;;;;;;0.03;0.03;;;11.90;95.70;;;;;;5067144;28;20047;-69
2021/10/13 10:12:02;;;;;;;0.10;0.10;;;12.00;95.80;;;;;;5056148;28;20055;-69
2021/10/13 10:14:35;;;;;;;0.03;0.03;;;12.10;95.20;;;;;;5066748;28;20024;-70
2021/10/13 10:17:02;;;;;;;0.30;0.30;;;12.20;95.10;;;;;;5048578;28;20087;-72
2021/10/13 10:19:37;;;;;;;1.90;0.40;;;12.20;94.80;;;;;;5059940;28;20402;-71
2021/10/13 10:22:18;;;;;;;2.50;1.15;;;12.20;94.70;;;;;;5057910;28;20131;-71
2021/10/13 10:24:47;;;;;;;0.00;0.00;;;12.30;94.70;;;;;;5055631;28;20553;-71
2021/10/13 10:27:26;;;;;;;0.00;0.00;;;12.40;95.00;;;;;;5048673;28;20032;-72
2021/10/13 10:30:10;;;;;;;1.45;0.73;;;12.50;94.90;;;;;;5054345;28;20147;-70
2021/10/13 10:32:36;;;;;;;0.20;0.20;;;12.50;94.50;;;;;;5055219;28;20021;-71
2021/10/13 10:35:05;;;;;;;0.25;0.13;;;12.60;94.50;;;;;;5062458;28;20550;-72
2021/10/13 10:37:38;;;;;;;0.15;0.10;;;12.60;94.00;;;;;;5055598;28;20360;-72
2021/10/13 10:40:07;;;;;;;0.05;0.05;;;12.60;94.50;;;;;;5061696;28;20475;-75
2021/10/13 10:42:55;;;;;;;0.00;0.00;;;12.70;93.90;;;;;;5050530;28;20059;-71
2021/10/13 10:45:29;;;;;;;1.10;0.88;;;12.80;93.60;;;;;;5059139;28;20491;-72
2021/10/13 10:48:05;;;;;;;0.55;0.55;;;13.00;93.50;;;;;;5059206;28;20070;-71
2021/10/13 10:50:43;;;;;;;0.50;0.50;;;13.30;92.40;;;;;;5059091;28;20043;-71
2021/10/13 10:53:32;;;;;;;1.95;0.17;;;13.50;91.60;;;;;;5060430;28;20455;-70
2021/10/13 10:56:17;;;;;;;0.00;0.00;;;13.80;91.90;;;;;;5062188;28;20542;-71
2021/10/13 10:59:05;;;;;;;0.52;0.20;;;14.20;90.50;;;;;;5065284;28;20796;-71
2021/10/13 11:01:32;;;;;;;0.00;0.00;;;14.50;88.80;;;;;;5064180;28;20123;-71
2021/10/13 11:03:57;;;;;;;0.30;0.30;;;14.70;87.60;;;;;;5064751;28;20021;-70
2021/10/13 11:06:28;;;;;;;1.67;0.45;;;14.90;85.10;;;;;;5065452;28;20031;-71
2021/10/13 11:09:01;;;;;;;0.00;0.00;;;15.00;83.40;;;;;;5065708;28;20059;-71
2021/10/13 11:11:36;;;;;;;0.22;0.22;;;15.20;82.60;;;;;;5065099;28;20036;-71
2021/10/13 11:14:10;;;;;;;0.03;0.03;;;15.30;81.60;;;;;;5061346;28;20053;-72
2021/10/13 11:16:50;;;;;;;2.88;0.50;;;15.50;81.00;;;;;;5064950;28;20017;-72
2021/10/13 11:19:19;;;;;;;0.75;0.35;;;15.70;79.50;;;;;;5065733;28;20044;-71
2021/10/13 11:21:45;;;;;;;0.40;0.40;;;15.70;78.50;;;;;;5064816;28;20036;-71
2021/10/13 11:24:12;;;;;;;0.10;0.10;;;15.90;77.70;;;;;;5064491;28;20070;-71
2021/10/13 11:26:37;;;;;;;0.10;0.10;;;16.20;76.20;;;;;;5066470;28;20029;-71
2021/10/13 11:29:14;;;;;;;0.55;0.47;;;16.40;75.50;;;;;;5065296;28;20089;-71
2021/10/13 11:31:39;;;;;;;0.85;0.55;;;16.60;73.60;;;;;;5064017;28;20486;-72
2021/10/13 11:34:06;;;;;;;0.57;0.15;;;17.00;73.20;;;;;;5057937;28;20075;-71
2021/10/13 11:36:32;;;;;;;0.30;0.30;;;17.40;71.30;;;;;;5062222;28;20052;-72
2021/10/13 11:38:58;;;;;;;0.08;0.08;;;17.20;68.50;;;;;;5062554;28;20607;-72
2021/10/13 11:41:23;;;;;;;0.20;0.20;;;16.80;70.10;;;;;;5066927;28;20020;-72
2021/10/13 11:43:49;;;;;;;4.18;0.45;;;17.10;72.40;;;;;;5064127;28;20025;-73
2021/10/13 11:46:16;;;;;;;0.10;0.10;;;17.10;68.80;;;;;;5062349;28;20402;-73
2021/10/13 11:48:41;;;;;;;0.60;0.52;;;17.40;69.20;;;;;;5063659;28;20071;-76
2021/10/13 11:51:13;;;;;;;0.10;0.10;;;17.80;66.80;;;;;;5065258;28;20439;-73
2021/10/13 11:53:39;;;;;;;0.60;0.60;;;18.30;68.60;;;;;;5063538;28;20422;-75
2021/10/13 11:56:10;;;;;;;0.22;0.22;;;18.40;63.40;;;;;;5061856;28;20021;-71
2021/10/13 11:58:35;;;;;;;0.52;0.52;;;18.20;64.30;;;;;;5061662;28;20020;-70
2021/10/13 12:01:01;;;;;;;0.00;0.00;;;17.90;66.30;;;;;;5066195;28;20054;-72
2021/10/13 12:03:32;;;;;;;0.00;0.00;;;17.50;64.80;;;;;;5063790;28;20034;-71
2021/10/13 12:05:59;;;;;;;0.00;0.00;;;17.30;65.60;;;;;;5062095;28;20565;-71
2021/10/13 12:08:26;;;;;;;0.17;0.17;;;17.10;65.00;;;;;;5061212;28;20032;-71
2021/10/13 12:10:54;;;;;;;0.25;0.20;;;16.80;67.00;;;;;;5063480;28;20036;-71
2021/10/13 12:13:31;;;;;;;0.22;0.22;;;16.40;68.30;;;;;;5063070;28;20028;-71
2021/10/13 12:16:02;;;;;;;0.10;0.10;;;16.20;69.20;;;;;;5064216;28;20052;-70
2021/10/13 12:18:32;;;;;;;0.00;0.00;;;16.10;68.20;;;;;;5066293;28;20498;-71
2021/10/13 12:21:08;;;;;;;0.13;0.13;;;16.10;69.00;;;;;;5065440;28;20176;-71
2021/10/13 12:23:44;;;;;;;0.00;0.00;;;16.10;68.80;;;;;;5064383;28;20036;-72
2021/10/13 12:26:25;;;;;;;8.05;0.47;;;15.80;68.50;;;;;;5062450;28;20087;-71
2021/10/13 12:28:53;;;;;;;0.00;0.00;;;15.40;69.30;;;;;;5063156;28;20028;-71
2021/10/13 12:31:25;;;;;;;0.20;0.20;;;15.10;70.60;;;;;;5062582;28;20270;-71
2021/10/13 12:34:02;;;;;;;0.00;0.00;;;14.70;71.70;;;;;;5062138;28;20039;-72
2021/10/13 12:36:37;;;;;;;0.10;0.10;;;14.40;72.70;;;;;;5063652;28;20060;-72
2021/10/13 12:39:11;;;;;;;0.00;0.00;;;14.50;72.60;;;;;;5062607;28;20037;-71
2021/10/13 12:41:39;;;;;;;0.10;0.10;;;14.50;73.60;;;;;;5063134;28;20517;-72
2021/10/13 12:44:11;;;;;;;0.20;0.20;;;14.80;74.30;;;;;;5061124;28;20411;-72
2021/10/13 12:46:37;;;;;;;0.63;0.35;;;15.30;73.00;;;;;;5062843;28;20028;-72
2021/10/13 12:49:17;;;;;;;0.45;0.45;;;15.90;70.30;;;;;;5063261;28;20399;-72
2021/10/13 12:52:10;;;;;;;0.20;0.20;;;16.50;69.80;;;;;;5061084;28;20094;-72
2021/10/13 12:54:41;;;;;;;0.30;0.30;;;16.90;68.90;;;;;;5056307;28;20029;-72
2021/10/13 12:57:12;;;;;;;0.00;0.00;;;17.40;66.80;;;;;;5060212;28;20104;-72
2021/10/13 12:59:38;;;;;;;0.05;0.05;;;18.00;65.40;;;;;;5059750;28;20036;-71
2021/10/13 13:02:04;;;;;;;0.98;0.17;;;18.90;62.90;;;;;;5058234;28;20036;-71